createdAt,value
2018-04-11T00:00:20.588Z,15.90
2018-04-11T00:02:48.047Z,15.80
2018-04-11T00:05:16.308Z,15.70
2018-04-11T00:07:43.764Z,15.70
2018-04-11T00:10:11.271Z,15.60
2018-04-11T00:12:38.743Z,15.50
2018-04-11T00:15:06.234Z,15.50
2018-04-11T00:17:33.687Z,15.40
2018-04-11T00:20:01.139Z,15.30
2018-04-11T00:22:28.624Z,15.30
2018-04-11T00:24:56.136Z,15.30
2018-04-11T00:27:23.593Z,15.20
2018-04-11T00:29:51.068Z,15.20
2018-04-11T00:32:18.771Z,15.20
2018-04-11T00:34:47.254Z,15.10
2018-04-11T00:37:14.707Z,15.10
2018-04-11T00:39:42.202Z,15.10
2018-04-11T00:42:09.666Z,15.00
2018-04-11T00:44:37.127Z,14.90
2018-04-11T00:47:04.607Z,14.80
2018-04-11T00:49:32.063Z,14.70
2018-04-11T00:51:59.546Z,14.70
2018-04-11T00:54:27.031Z,14.60
2018-04-11T00:56:55.253Z,14.50
2018-04-11T00:59:22.735Z,14.50
2018-04-11T01:01:50.195Z,14.50
2018-04-11T01:04:17.743Z,14.40
2018-04-11T01:06:46.226Z,14.40
2018-04-11T01:09:13.694Z,14.40
2018-04-11T01:11:41.172Z,14.40
2018-04-11T01:14:09.396Z,14.40
2018-04-11T01:16:36.875Z,14.30
2018-04-11T01:19:04.507Z,14.30
2018-04-11T01:21:32.000Z,14.30
2018-04-11T01:23:59.486Z,14.20
2018-04-11T01:26:27.699Z,14.20
2018-04-11T01:28:55.166Z,14.10
2018-04-11T01:31:22.699Z,14.20
2018-04-11T01:33:50.188Z,14.10
2018-04-11T01:36:17.635Z,14.10
2018-04-11T01:38:45.130Z,14.10
2018-04-11T01:41:12.584Z,14.10
2018-04-11T01:43:40.038Z,14.10
2018-04-11T01:46:07.510Z,14.10
2018-04-11T01:48:35.002Z,14.10
2018-04-11T01:51:02.647Z,14.10
2018-04-11T01:53:30.114Z,14.10
2018-04-11T01:55:57.572Z,14.10
2018-04-11T01:58:25.037Z,14.00
2018-04-11T02:00:52.587Z,14.00
2018-04-11T02:03:20.838Z,13.90
2018-04-11T02:05:48.315Z,13.90
2018-04-11T02:08:15.800Z,13.90
2018-04-11T02:10:44.109Z,13.90
2018-04-11T02:13:11.571Z,13.90
2018-04-11T02:15:39.034Z,13.90
2018-04-11T02:18:06.524Z,13.90
2018-04-11T02:20:34.139Z,13.80
2018-04-11T02:23:01.603Z,13.80
2018-04-11T02:25:29.073Z,13.80
2018-04-11T02:27:56.535Z,13.80
2018-04-11T02:30:24.050Z,13.80
2018-04-11T02:32:52.267Z,13.70
2018-04-11T02:35:19.835Z,13.70
2018-04-11T02:37:47.294Z,13.70
2018-04-11T02:40:14.760Z,13.60
2018-04-11T02:42:42.235Z,13.60
2018-04-11T02:45:09.677Z,13.60
2018-04-11T02:47:37.154Z,13.50
2018-04-11T02:50:04.604Z,13.40
2018-04-11T02:52:32.869Z,13.30
2018-04-11T02:55:00.324Z,13.30
2018-04-11T02:57:27.858Z,13.30
2018-04-11T02:59:55.373Z,13.30
2018-04-11T03:02:22.852Z,13.30
2018-04-11T03:04:50.431Z,13.40
2018-04-11T03:07:17.891Z,13.40
2018-04-11T03:09:45.376Z,13.50
2018-04-11T03:12:12.830Z,13.60
2018-04-11T03:14:40.295Z,13.60
2018-04-11T03:17:07.771Z,13.50
2018-04-11T03:19:35.244Z,13.50
2018-04-11T03:22:03.478Z,13.40
2018-04-11T03:24:30.955Z,13.40
2018-04-11T03:26:58.430Z,13.30
2018-04-11T03:29:26.702Z,13.20
2018-04-11T03:31:54.183Z,13.20
2018-04-11T03:34:22.588Z,13.10
2018-04-11T03:36:50.057Z,13.10
2018-04-11T03:39:17.530Z,13.10
2018-04-11T03:41:44.986Z,13.10
2018-04-11T03:44:12.522Z,13.20
2018-04-11T03:46:40.018Z,13.20
2018-04-11T03:49:07.499Z,13.40
2018-04-11T03:51:34.956Z,13.40
2018-04-11T03:54:02.436Z,13.40
2018-04-11T03:56:29.910Z,13.40
2018-04-11T03:58:57.383Z,13.50
2018-04-11T04:01:24.839Z,13.50
2018-04-11T04:03:52.315Z,13.60
2018-04-11T04:06:20.555Z,13.60
2018-04-11T04:08:48.038Z,13.60
2018-04-11T04:11:15.510Z,13.60
2018-04-11T04:13:54.799Z,13.60
2018-04-11T04:16:34.140Z,13.60
2018-04-11T04:19:13.495Z,13.60
2018-04-11T04:21:41.039Z,13.60
2018-04-11T04:24:10.263Z,13.50
2018-04-11T04:26:37.742Z,13.50
2018-04-11T04:29:05.223Z,13.50
2018-04-11T04:31:32.707Z,13.50
2018-04-11T04:34:00.978Z,13.50
2018-04-11T04:36:29.194Z,13.60
2018-04-11T04:38:56.647Z,13.60
2018-04-11T04:41:24.131Z,13.60
2018-04-11T04:43:51.583Z,13.60
2018-04-11T04:46:19.048Z,13.70
2018-04-11T04:48:46.532Z,13.70
2018-04-11T04:51:14.850Z,13.70
2018-04-11T04:53:43.060Z,13.70
2018-04-11T04:56:10.515Z,13.70
2018-04-11T04:58:37.997Z,13.70
2018-04-11T05:01:05.456Z,13.70
2018-04-11T05:03:32.927Z,13.80
2018-04-11T05:06:01.151Z,13.80
2018-04-11T05:08:28.616Z,13.80
2018-04-11T05:10:56.090Z,13.90
2018-04-11T05:13:23.550Z,13.90
2018-04-11T05:15:51.018Z,13.90
2018-04-11T05:18:18.491Z,13.90
2018-04-11T05:20:46.781Z,13.90
2018-04-11T05:23:15.036Z,13.90
2018-04-11T05:25:42.486Z,13.90
2018-04-11T05:28:09.996Z,13.90
2018-04-11T05:30:37.531Z,13.90
2018-04-11T05:33:04.991Z,13.80
2018-04-11T05:35:33.250Z,13.80
2018-04-11T05:38:01.539Z,13.80
2018-04-11T05:40:29.787Z,13.80
2018-04-11T05:42:57.330Z,13.70
2018-04-11T05:45:24.799Z,13.80
2018-04-11T05:47:52.255Z,13.80
2018-04-11T05:50:19.755Z,13.80
2018-04-11T05:52:47.239Z,13.80
2018-04-11T05:55:14.715Z,13.80
2018-04-11T05:57:42.183Z,13.80
2018-04-11T06:00:09.666Z,13.80
2018-04-11T06:02:37.125Z,13.80
2018-04-11T06:05:04.640Z,13.80
2018-04-11T06:07:32.123Z,13.80
2018-04-11T06:09:59.583Z,13.80
2018-04-11T06:12:27.066Z,13.80
2018-04-11T06:14:55.301Z,13.80
2018-04-11T06:17:22.751Z,13.80
2018-04-11T06:19:50.324Z,13.80
2018-04-11T06:22:17.782Z,13.80
2018-04-11T06:24:45.487Z,13.80
2018-04-11T06:27:12.961Z,13.70
2018-04-11T06:29:40.434Z,13.70
2018-04-11T06:32:07.920Z,13.70
2018-04-11T06:34:36.165Z,13.60
2018-04-11T06:37:03.626Z,13.60
2018-04-11T06:39:31.103Z,13.60
2018-04-11T06:41:58.624Z,13.70
2018-04-11T06:44:26.867Z,13.70
2018-04-11T06:46:54.335Z,13.70
2018-04-11T06:49:21.795Z,13.80
2018-04-11T06:51:49.278Z,13.80
2018-04-11T06:54:17.487Z,13.90
2018-04-11T06:56:44.967Z,13.90
2018-04-11T06:59:13.205Z,14.00
2018-04-11T07:01:40.691Z,14.00
2018-04-11T07:04:08.141Z,14.10
2018-04-11T07:06:35.600Z,14.10
2018-04-11T07:09:03.247Z,14.10
2018-04-11T07:11:30.767Z,14.20
2018-04-11T07:13:58.990Z,14.10
2018-04-11T07:16:26.472Z,14.10
2018-04-11T07:18:53.928Z,14.10
2018-04-11T07:21:21.387Z,14.10
2018-04-11T07:23:48.862Z,14.00
2018-04-11T07:26:16.355Z,14.10
2018-04-11T07:28:43.807Z,14.10
2018-04-11T07:31:12.056Z,14.10
2018-04-11T07:33:39.552Z,14.10
2018-04-11T07:36:07.011Z,14.20
2018-04-11T07:38:34.463Z,14.20
2018-04-11T07:41:01.988Z,14.20
2018-04-11T07:43:29.502Z,14.20
2018-04-11T07:45:56.989Z,14.20
2018-04-11T07:48:24.474Z,14.20
2018-04-11T07:50:51.965Z,14.20
2018-04-11T07:53:19.423Z,14.20
2018-04-11T07:55:46.911Z,14.20
2018-04-11T07:58:14.371Z,14.20
2018-04-11T08:00:41.861Z,14.20
2018-04-11T08:03:09.496Z,14.30
2018-04-11T08:05:37.651Z,14.40
2018-04-11T08:08:05.134Z,14.40
2018-04-11T08:10:32.655Z,14.40
2018-04-11T08:13:00.117Z,14.50
2018-04-11T08:15:27.583Z,14.50
2018-04-11T08:17:55.072Z,14.60
2018-04-11T08:20:22.527Z,14.70
2018-04-11T08:22:49.988Z,14.90
2018-04-11T08:25:17.489Z,15.10
2018-04-11T08:27:44.965Z,15.20
2018-04-11T08:30:12.516Z,15.30
2018-04-11T08:32:39.979Z,15.40
2018-04-11T08:35:07.445Z,15.40
2018-04-11T08:37:34.919Z,15.40
2018-04-11T08:40:02.375Z,15.50
2018-04-11T08:42:29.868Z,15.50
2018-04-11T08:44:57.379Z,15.70
2018-04-11T08:47:24.846Z,15.90
2018-04-11T08:49:52.307Z,16.00
2018-04-11T08:52:19.763Z,16.10
2018-04-11T08:54:47.239Z,16.10
2018-04-11T08:57:14.719Z,16.00
2018-04-11T08:59:42.175Z,16.10
2018-04-11T09:02:09.622Z,16.10
2018-04-11T09:04:37.146Z,16.10
2018-04-11T09:07:04.596Z,16.10
2018-04-11T09:09:32.075Z,16.00
2018-04-11T09:11:59.528Z,16.10
2018-04-11T09:14:27.080Z,16.30
2018-04-11T09:16:54.581Z,16.40
2018-04-11T09:19:22.031Z,16.60
2018-04-11T09:21:49.483Z,16.60
2018-04-11T09:24:16.968Z,16.60
2018-04-11T09:26:44.424Z,16.60
2018-04-11T09:29:11.882Z,16.50
2018-04-11T09:31:39.375Z,16.50
2018-04-11T09:34:06.860Z,16.50
2018-04-11T09:36:34.331Z,16.70
2018-04-11T09:39:01.813Z,16.80
2018-04-11T09:41:29.291Z,17.00
2018-04-11T09:43:56.759Z,17.20
2018-04-11T09:46:24.210Z,17.20
2018-04-11T09:48:52.455Z,17.60
2018-04-11T09:51:20.049Z,17.60
2018-04-11T09:53:48.266Z,18.10
2018-04-11T09:56:15.761Z,18.10
2018-04-11T09:58:43.252Z,18.30
2018-04-11T10:01:17.157Z,18.30
2018-04-11T10:03:45.547Z,18.30
2018-04-11T10:06:13.025Z,18.20
2018-04-11T10:08:40.487Z,18.20
2018-04-11T10:11:07.969Z,18.10
2018-04-11T10:13:35.442Z,18.10
2018-04-11T10:16:02.916Z,18.10
2018-04-11T10:18:31.139Z,18.50
2018-04-11T10:20:58.618Z,18.40
2018-04-11T10:23:26.119Z,18.60
2018-04-11T10:25:53.565Z,18.80
2018-04-11T10:28:21.793Z,19.20
2018-04-11T10:30:50.248Z,19.20
2018-04-11T10:33:17.707Z,19.40
2018-04-11T10:35:45.174Z,19.50
2018-04-11T10:38:12.617Z,19.50
2018-04-11T10:40:40.104Z,19.30
2018-04-11T10:43:07.587Z,19.20
2018-04-11T10:45:35.084Z,19.20
2018-04-11T10:48:03.388Z,19.50
2018-04-11T10:50:30.840Z,19.50
2018-04-11T10:52:58.328Z,19.80
2018-04-11T10:55:25.803Z,20.10
2018-04-11T10:57:53.280Z,20.10
2018-04-11T11:00:21.579Z,19.90
2018-04-11T11:02:49.063Z,19.90
2018-04-11T11:05:16.519Z,20.00
2018-04-11T11:07:44.002Z,20.10
2018-04-11T11:10:11.480Z,20.10
2018-04-11T11:12:38.942Z,20.00
2018-04-11T11:15:06.408Z,20.00
2018-04-11T11:17:34.653Z,20.00
2018-04-11T11:20:02.116Z,20.00
2018-04-11T11:22:29.575Z,20.00
2018-04-11T11:24:57.051Z,20.00
2018-04-11T11:27:24.507Z,20.10
2018-04-11T11:29:52.113Z,20.20
2018-04-11T11:32:19.590Z,20.20
2018-04-11T11:34:47.068Z,20.30
2018-04-11T11:37:14.527Z,20.50
2018-04-11T11:39:42.099Z,20.60
2018-04-11T11:42:09.564Z,20.80
2018-04-11T11:44:37.020Z,21.00
2018-04-11T11:47:04.499Z,21.00
2018-04-11T11:49:32.712Z,20.90
2018-04-11T11:52:00.202Z,20.90
2018-04-11T11:54:27.757Z,20.80
2018-04-11T11:56:55.214Z,20.60
2018-04-11T11:59:22.662Z,20.50
2018-04-11T12:01:50.148Z,20.30
2018-04-11T12:04:17.627Z,20.10
2018-04-11T12:06:45.877Z,19.90
2018-04-11T12:09:13.358Z,19.80
2018-04-11T12:11:40.840Z,19.80
2018-04-11T12:14:08.295Z,19.60
2018-04-11T12:16:35.819Z,19.40
2018-04-11T12:19:03.275Z,19.30
2018-04-11T12:21:30.752Z,19.10
2018-04-11T12:23:59.161Z,19.20
2018-04-11T12:26:26.658Z,19.10
2018-04-11T12:28:54.120Z,19.30
2018-04-11T12:31:21.740Z,19.40
2018-04-11T12:33:49.220Z,19.40
2018-04-11T12:36:16.683Z,19.40
2018-04-11T12:38:44.180Z,19.30
2018-04-11T12:41:12.404Z,19.20
2018-04-11T12:43:39.858Z,19.10
2018-04-11T12:46:07.357Z,19.10
2018-04-11T12:48:34.806Z,19.10
2018-04-11T12:51:02.294Z,19.10
2018-04-11T12:53:30.535Z,19.30
2018-04-11T12:55:58.003Z,19.30
2018-04-11T12:58:25.636Z,19.40
2018-04-11T13:00:53.125Z,19.50
2018-04-11T13:03:20.615Z,19.60
2018-04-11T13:05:48.857Z,20.00
2018-04-11T13:08:16.307Z,20.00
2018-04-11T13:10:43.792Z,20.20
2018-04-11T13:13:11.267Z,20.30
2018-04-11T13:15:39.495Z,20.70
2018-04-11T13:18:06.959Z,20.60
2018-04-11T13:20:34.657Z,20.80
2018-04-11T13:23:03.258Z,21.00
2018-04-11T13:25:31.045Z,21.00
2018-04-11T13:27:58.503Z,21.00
2018-04-11T13:30:25.986Z,21.00
2018-04-11T13:32:53.997Z,21.00
2018-04-11T13:35:22.242Z,21.10
2018-04-11T13:37:49.772Z,21.10
2018-04-11T13:40:17.295Z,21.50
2018-04-11T13:42:44.776Z,21.60
2018-04-11T13:45:12.256Z,21.40
2018-04-11T13:47:39.735Z,21.20
2018-04-11T13:50:07.239Z,21.10
2018-04-11T13:52:35.459Z,21.20
2018-04-11T13:55:02.932Z,21.10
2018-04-11T13:57:30.445Z,21.10
2018-04-11T13:59:57.896Z,21.00
2018-04-11T14:02:25.527Z,20.90
2018-04-11T14:04:52.930Z,20.80
2018-04-11T14:07:20.390Z,20.60
2018-04-11T14:09:48.352Z,20.50
2018-04-11T14:12:15.826Z,20.30
2018-04-11T14:14:43.413Z,20.20
2018-04-11T14:17:10.864Z,20.00
2018-04-11T14:19:38.346Z,19.90
2018-04-11T14:22:05.811Z,19.80
2018-04-11T14:24:34.053Z,20.10
2018-04-11T14:27:01.709Z,20.10
2018-04-11T14:29:29.159Z,20.40
2018-04-11T14:31:56.637Z,20.40
2018-04-11T14:34:24.095Z,20.40
2018-04-11T14:36:51.624Z,20.60
2018-04-11T14:39:19.084Z,22.50
2018-04-11T14:41:46.565Z,23.10
2018-04-11T14:44:14.067Z,23.10
2018-04-11T14:46:41.558Z,23.10
2018-04-11T14:49:09.036Z,23.10
2018-04-11T14:51:36.511Z,22.90
2018-04-11T14:54:03.979Z,22.80
2018-04-11T14:56:31.486Z,22.60
2018-04-11T14:58:58.931Z,22.50
2018-04-11T15:01:26.391Z,22.30
2018-04-11T15:03:53.872Z,22.10
2018-04-11T15:06:21.351Z,21.90
2018-04-11T15:08:48.947Z,21.70
2018-04-11T15:11:17.335Z,21.30
2018-04-11T15:13:44.782Z,21.20
2018-04-11T15:16:13.034Z,21.00
2018-04-11T15:18:40.487Z,21.00
2018-04-11T15:21:07.967Z,21.00
2018-04-11T15:23:35.410Z,20.80
2018-04-11T15:26:02.929Z,20.70
2018-04-11T15:28:30.409Z,20.50
2018-04-11T15:30:58.195Z,20.30
2018-04-11T15:33:25.670Z,20.00
2018-04-11T15:35:53.127Z,19.80
2018-04-11T15:38:20.607Z,19.60
2018-04-11T15:40:48.173Z,19.30
2018-04-11T15:43:15.624Z,19.10
2018-04-11T15:45:43.898Z,18.70
2018-04-11T15:48:12.121Z,18.60
2018-04-11T15:50:39.592Z,18.60
2018-04-11T15:53:07.067Z,18.50
2018-04-11T15:55:34.539Z,18.50
2018-04-11T15:58:02.755Z,18.50
2018-04-11T16:00:30.227Z,18.50
2018-04-11T16:02:57.695Z,18.60
2018-04-11T16:05:25.210Z,18.60
2018-04-11T16:07:52.684Z,18.70
2018-04-11T16:10:20.155Z,18.90
2018-04-11T16:12:47.640Z,18.90
2018-04-11T16:15:15.115Z,18.90
2018-04-11T16:17:42.648Z,18.80
2018-04-11T16:20:10.153Z,18.70
2018-04-11T16:22:38.540Z,18.70
2018-04-11T16:25:06.221Z,18.60
2018-04-11T16:27:33.677Z,18.70
2018-04-11T16:30:01.169Z,18.70
2018-04-11T16:32:28.652Z,18.70
2018-04-11T16:34:56.115Z,18.80
2018-04-11T16:37:24.355Z,19.20
2018-04-11T16:39:51.875Z,19.20
2018-04-11T16:42:19.500Z,19.40
2018-04-11T16:44:47.775Z,19.90
2018-04-11T16:47:15.279Z,19.90
2018-04-11T16:49:42.757Z,20.10
2018-04-11T16:52:10.205Z,20.40
2018-04-11T16:54:37.799Z,20.70
2018-04-11T16:57:06.268Z,20.80
2018-04-11T16:59:34.729Z,20.50
2018-04-11T17:02:02.222Z,20.50
2018-04-11T17:04:29.844Z,20.50
2018-04-11T17:06:57.477Z,20.60
2018-04-11T17:09:26.625Z,20.40
2018-04-11T17:11:54.175Z,20.40
2018-04-11T17:14:22.523Z,20.30
2018-04-11T17:16:50.081Z,20.40
2018-04-11T17:19:17.635Z,20.20
2018-04-11T17:21:57.834Z,19.70
2018-04-11T17:24:37.155Z,19.70
2018-04-11T17:27:17.172Z,19.50
2018-04-11T17:29:56.578Z,19.20
2018-04-11T17:32:24.866Z,19.10
2018-04-11T17:34:52.359Z,19.10
2018-04-11T17:37:20.044Z,18.90
2018-04-11T17:39:47.845Z,18.70
2018-04-11T17:42:15.438Z,18.70
2018-04-11T17:44:43.066Z,18.90
2018-04-11T17:47:10.653Z,18.90
2018-04-11T17:49:38.163Z,18.80
2018-04-11T17:52:05.729Z,18.60
2018-04-11T17:54:33.412Z,18.30
2018-04-11T17:57:00.931Z,18.00
2018-04-11T17:59:28.386Z,17.80
2018-04-11T18:01:56.040Z,17.60
2018-04-11T18:04:23.549Z,17.50
2018-04-11T18:06:51.056Z,17.30
2018-04-11T18:09:19.330Z,17.10
2018-04-11T18:11:46.784Z,17.10
2018-04-11T18:14:14.254Z,17.10
2018-04-11T18:16:42.475Z,16.90
2018-04-11T18:19:09.967Z,16.90
2018-04-11T18:21:37.541Z,16.90
2018-04-11T18:24:05.769Z,16.80
2018-04-11T18:26:34.015Z,16.70
2018-04-11T18:29:01.527Z,16.70
2018-04-11T18:31:28.987Z,16.60
2018-04-11T18:33:56.470Z,16.50
2018-04-11T18:36:24.719Z,16.50
2018-04-11T18:38:52.203Z,16.50
2018-04-11T18:41:20.436Z,16.40
2018-04-11T18:43:47.891Z,16.30
2018-04-11T18:46:15.373Z,16.30
2018-04-11T18:48:42.857Z,16.30
2018-04-11T18:51:11.128Z,16.10
2018-04-11T18:53:39.543Z,16.10
2018-04-11T18:56:07.022Z,16.00
2018-04-11T18:58:34.492Z,16.00
2018-04-11T19:01:03.009Z,15.80
2018-04-11T19:03:30.867Z,15.80
2018-04-11T19:05:59.098Z,15.60
2018-04-11T19:08:26.576Z,15.60
2018-04-11T19:10:54.091Z,15.50
2018-04-11T19:13:21.838Z,15.50
2018-04-11T19:15:49.269Z,15.50
2018-04-11T19:18:16.849Z,15.50
2018-04-11T19:20:44.489Z,15.50
2018-04-11T19:23:11.996Z,15.60
2018-04-11T19:25:39.711Z,15.70
2018-04-11T19:28:07.235Z,15.70
2018-04-11T19:30:34.735Z,15.80
2018-04-11T19:33:02.387Z,15.80
2018-04-11T19:35:29.830Z,15.80
2018-04-11T19:37:57.383Z,15.90
2018-04-11T19:40:24.854Z,15.90
2018-04-11T19:42:52.441Z,15.90
2018-04-11T19:45:19.983Z,16.00
2018-04-11T19:47:47.478Z,16.00
2018-04-11T19:50:16.002Z,16.10
2018-04-11T19:52:43.496Z,16.10
2018-04-11T19:55:10.964Z,16.10
2018-04-11T19:57:38.476Z,16.10
2018-04-11T20:00:06.104Z,16.10
2018-04-11T20:02:33.629Z,16.00
2018-04-11T20:05:01.111Z,16.00
2018-04-11T20:07:29.460Z,16.00
2018-04-11T20:09:57.329Z,15.90
2018-04-11T20:12:24.839Z,15.90
2018-04-11T20:14:52.438Z,15.90
2018-04-11T20:17:19.934Z,15.90
2018-04-11T20:19:47.433Z,16.00
2018-04-11T20:22:15.847Z,15.90
2018-04-11T20:24:43.335Z,15.90
2018-04-11T20:27:10.788Z,15.90
2018-04-11T20:29:38.253Z,15.70
2018-04-11T20:32:06.511Z,15.60
2018-04-11T20:34:34.731Z,15.40
2018-04-11T20:37:02.210Z,15.40
2018-04-11T20:39:29.702Z,15.40
2018-04-11T20:41:57.192Z,15.40
2018-04-11T20:44:25.418Z,15.20
2018-04-11T20:46:53.646Z,15.20
2018-04-11T20:49:21.893Z,15.10
2018-04-11T20:51:49.367Z,15.10
2018-04-11T20:54:16.926Z,15.00
2018-04-11T20:56:44.400Z,14.90
2018-04-11T20:59:12.708Z,14.80
2018-04-11T21:01:40.186Z,14.80
2018-04-11T21:04:07.634Z,14.70
2018-04-11T21:06:35.179Z,14.60
2018-04-11T21:09:02.663Z,14.60
2018-04-11T21:11:30.162Z,14.50
2018-04-11T21:13:58.382Z,14.40
2018-04-11T21:16:25.859Z,14.40
2018-04-11T21:18:53.327Z,14.30
2018-04-11T21:21:20.797Z,14.30
2018-04-11T21:23:48.262Z,14.20
2018-04-11T21:26:15.751Z,14.20
2018-04-11T21:28:43.223Z,14.10
2018-04-11T21:31:10.782Z,14.00
2018-04-11T21:33:38.347Z,14.00
2018-04-11T21:36:05.827Z,13.90
2018-04-11T21:38:33.282Z,13.90
2018-04-11T21:41:00.763Z,13.80
2018-04-11T21:43:28.247Z,13.80
2018-04-11T21:45:55.703Z,13.70
2018-04-11T21:48:23.170Z,13.60
2018-04-11T21:50:50.659Z,13.60
2018-04-11T21:53:18.149Z,13.50
2018-04-11T21:55:45.592Z,13.50
2018-04-11T21:58:13.061Z,13.40
2018-04-11T22:00:40.519Z,13.40
2018-04-11T22:03:07.987Z,13.50
2018-04-11T22:05:35.459Z,13.50
2018-04-11T22:08:03.730Z,13.50
2018-04-11T22:10:31.235Z,13.40
2018-04-11T22:12:58.710Z,13.40
2018-04-11T22:15:26.179Z,13.40
2018-04-11T22:17:53.683Z,13.40
2018-04-11T22:20:21.911Z,13.30
2018-04-11T22:22:49.400Z,13.30
2018-04-11T22:25:16.871Z,13.30
2018-04-11T22:27:44.351Z,13.30
2018-04-11T22:30:11.838Z,13.30
2018-04-11T22:32:39.310Z,13.20
2018-04-11T22:35:06.763Z,13.20
2018-04-11T22:37:34.246Z,13.20
2018-04-11T22:40:01.848Z,13.20
2018-04-11T22:42:29.332Z,13.10
2018-04-11T22:44:56.795Z,13.10
2018-04-11T22:47:25.050Z,13.10
2018-04-11T22:49:52.537Z,13.10
2018-04-11T22:52:19.995Z,13.10
2018-04-11T22:54:47.487Z,13.10
2018-04-11T22:57:15.728Z,13.00
2018-04-11T22:59:43.219Z,13.00
2018-04-11T23:02:10.720Z,13.00
2018-04-11T23:04:38.219Z,13.00
2018-04-11T23:07:05.709Z,12.90
2018-04-11T23:09:33.159Z,12.90
2018-04-11T23:12:01.404Z,12.90
2018-04-11T23:14:28.891Z,12.90
2018-04-11T23:16:56.370Z,12.90
2018-04-11T23:19:23.844Z,12.80
2018-04-11T23:21:51.316Z,12.80
2018-04-11T23:24:18.800Z,12.80
2018-04-11T23:26:46.267Z,12.80
2018-04-11T23:29:13.759Z,12.70
2018-04-11T23:31:41.219Z,12.70
2018-04-11T23:34:09.492Z,12.70
2018-04-11T23:36:37.738Z,12.70
2018-04-11T23:39:05.201Z,12.60
2018-04-11T23:41:32.692Z,12.60
2018-04-11T23:44:00.151Z,12.60
2018-04-11T23:46:27.605Z,12.60
2018-04-11T23:48:55.184Z,12.60
2018-04-11T23:51:22.660Z,12.50
2018-04-11T23:53:50.147Z,12.50
2018-04-11T23:56:18.361Z,12.50
2018-04-11T23:58:45.847Z,12.40
